Danbury, Wisconsin
Current Conditions -  °F | °C
As of 7:35 PM on Tuesday 27 Jan 2015 (Local Time) from KRZN Reporting Station
Overcast Overcast  
Wind Chill: 22°   Ceiling: 1900
Heat Index: 29°   Visibility: 10mi
Dew Point: 24°   Wind: 8mph
Humidity: 79%   Direction: 160°SSE
Pressure: 30.15"   Gusts: NA
Location:  46.01°N, 92.37°W
Report Text: KRZN 280135Z AUTO 16007KT 10SM OVC019 M01/M05 A3015 RMK AO2 T10151047
Loading
Personal Weather Stations






























Interactive Weather Map New forecast layout! Learn more

10-Day Weather Forecast

Advertisements
Track Severe Weather on mobile